LFPG 211500Z 34005KT 260V040 9999 SCT039 BKN050 26/16 Q1019 NOSIG

ElémentsDécodage
LFPG Station météo située sur l'aérodrome de PARIS Charles-de-Gaulle
211500Z émis le 21 du mois à 15h00 UTC
34005KT vent du 340°, 05 noeuds
260V040 vent de direction variable entre 260° et 040°
9999 visibilité horizontale supérieure à 10 Km
SCT039 nuages épars (3/8 à 4/8) à 3900 pieds
BKN050 nuages morcelés (5/8 à 7/8) à 5000 pieds
26/16 température 26°C, point de rosée 16°C
 soit une humidité relative de 54%
Q1019 la pression au niveau de la mer (QNH) est de 1019 hPa
NOSIG Pas de changement significatif prévu au cours des deux heures suivant l'heure de l'observation